Time;durP1;ratioP1;P1;durP2;ratioP2;P2;SDS_P1;SDS_P2;PMS_P1;PMS_P2;Temp;Humidity;BMP_temperature;BMP_pressure;BME280_temperature;BME280_humidity;BME280_pressure;Samples;Min_cycle;Max_cycle;Signal;HPM_P1;HPM_P2
2022/08/30 00:01:03;;;;;;;0.50;0.50;;;;;;;16.93;79.58;101127.59;5019815;28;20210;-81
2022/08/30 00:03:33;;;;;;;0.83;0.70;;;;;;;16.81;80.45;101101.63;5020160;28;20246;-79
2022/08/30 00:05:59;;;;;;;0.63;0.50;;;;;;;16.75;80.21;101101.81;5020169;28;20227;-80
2022/08/30 00:08:26;;;;;;;1.33;0.60;;;;;;;16.82;79.99;101112.13;5020374;28;20235;-81
2022/08/30 00:10:53;;;;;;;0.63;0.63;;;;;;;16.79;79.90;101122.78;5020509;28;20592;-80
2022/08/30 00:13:20;;;;;;;1.03;0.50;;;;;;;16.74;80.10;101124.69;5020161;28;20214;-81
2022/08/30 00:15:48;;;;;;;0.50;0.50;;;;;;;16.69;80.32;101121.38;5020109;28;20582;-81
2022/08/30 00:18:17;;;;;;;1.87;0.60;;;;;;;16.72;80.11;101130.94;5019615;28;20677;-82
2022/08/30 00:20:45;;;;;;;0.60;0.60;;;;;;;16.74;80.54;101126.47;5020036;28;20296;-81
2022/08/30 00:23:13;;;;;;;0.87;0.70;;;;;;;16.69;80.90;101113.44;5018466;28;20228;-79
2022/08/30 00:25:40;;;;;;;1.37;0.77;;;;;;;16.70;80.99;101109.03;5019418;28;20233;-78
2022/08/30 00:28:07;;;;;;;0.70;0.60;;;;;;;16.69;80.88;101108.19;5019704;28;20217;-80
2022/08/30 00:30:33;;;;;;;1.33;0.40;;;;;;;16.66;80.84;101116.19;5019260;28;20217;-80
2022/08/30 00:33:00;;;;;;;0.60;0.37;;;;;;;16.67;80.47;101115.28;5020160;28;20220;-81
2022/08/30 00:35:28;;;;;;;0.50;0.50;;;;;;;16.62;80.66;101120.69;5019195;28;20232;-79
2022/08/30 00:37:54;;;;;;;1.73;0.60;;;;;;;16.62;80.47;101110.16;5019337;28;20214;-81
2022/08/30 00:40:22;;;;;;;2.23;0.80;;;;;;;16.53;80.69;101118.38;5020136;28;20214;-80
2022/08/30 00:42:49;;;;;;;1.17;0.60;;;;;;;16.51;81.03;101104.38;5019974;28;20205;-81
2022/08/30 00:45:19;;;;;;;2.27;0.73;;;;;;;16.53;81.09;101104.31;5019389;28;20616;-80
2022/08/30 00:47:46;;;;;;;2.20;0.67;;;;;;;16.54;80.66;101120.09;5019684;28;20692;-80
2022/08/30 00:50:15;;;;;;;0.70;0.70;;;;;;;16.46;81.13;101101.88;5019993;28;20217;-80
2022/08/30 00:52:48;;;;;;;0.80;0.80;;;;;;;16.43;81.88;101080.91;5019931;28;20216;-81
2022/08/30 00:55:17;;;;;;;1.17;0.87;;;;;;;16.40;82.09;101066.97;5018777;28;20232;-80
2022/08/30 00:57:46;;;;;;;1.13;0.80;;;;;;;16.36;81.98;101068.00;5018800;28;20202;-81
2022/08/30 01:00:15;;;;;;;0.80;0.80;;;;;;;16.34;82.02;101069.81;5019703;28;20223;-81
2022/08/30 01:02:42;;;;;;;1.17;0.90;;;;;;;16.28;82.43;101063.81;5018666;28;20211;-80
2022/08/30 01:05:10;;;;;;;0.93;0.87;;;;;;;16.25;82.67;101048.13;5019119;28;20240;-81
2022/08/30 01:07:37;;;;;;;1.00;1.00;;;;;;;16.20;82.37;101063.22;5018767;28;20241;-80
2022/08/30 01:10:08;;;;;;;2.67;1.00;;;;;;;16.19;82.26;101072.00;5025057;28;20273;-82
2022/08/30 01:12:35;;;;;;;1.27;1.00;;;;;;;16.19;82.18;101082.53;5025094;28;20210;-81
2022/08/30 01:15:02;;;;;;;1.60;1.10;;;;;;;16.24;82.19;101074.53;5024636;28;20232;-81
2022/08/30 01:17:29;;;;;;;1.30;1.20;;;;;;;16.22;82.58;101064.03;5021636;28;20218;-80
2022/08/30 01:20:00;;;;;;;1.10;1.10;;;;;;;16.21;82.81;101064.94;5018204;28;20204;-80
2022/08/30 01:22:32;;;;;;;2.03;1.17;;;;;;;16.13;83.25;101051.13;5017979;28;20296;-78
2022/08/30 01:25:02;;;;;;;1.30;1.20;;;;;;;16.17;82.93;101078.25;5017561;28;20215;-81
2022/08/30 01:27:30;;;;;;;1.60;1.27;;;;;;;16.16;83.11;101066.00;5017984;28;20225;-78
2022/08/30 01:29:58;;;;;;;1.57;1.10;;;;;;;16.12;83.44;101062.59;5017964;28;20208;-78
2022/08/30 01:32:27;;;;;;;0.97;0.93;;;;;;;16.13;83.39;101061.69;5018043;28;20312;-80
2022/08/30 01:34:55;;;;;;;1.20;1.20;;;;;;;16.07;83.21;101070.66;5018589;28;20681;-78
2022/08/30 01:37:25;;;;;;;1.43;1.33;;;;;;;16.07;83.20;101082.94;5022267;28;20209;-80
2022/08/30 01:39:52;;;;;;;2.67;1.17;;;;;;;16.03;83.47;101074.28;5022211;28;20269;-79
2022/08/30 01:42:19;;;;;;;1.37;1.30;;;;;;;16.01;83.13;101080.50;5021985;28;20217;-80
2022/08/30 01:44:47;;;;;;;1.10;1.10;;;;;;;15.95;83.87;101072.81;5021559;28;20206;-78
2022/08/30 01:47:16;;;;;;;1.30;1.30;;;;;;;15.98;83.88;101064.81;5021212;28;20217;-80
2022/08/30 01:49:42;;;;;;;1.50;1.40;;;;;;;15.92;84.25;101063.25;5021741;28;20225;-81
2022/08/30 01:52:09;;;;;;;1.60;1.23;;;;;;;15.96;84.07;101056.97;5021801;28;20214;-78
2022/08/30 01:54:37;;;;;;;2.17;1.37;;;;;;;15.96;84.25;101054.31;5021870;28;20216;-81
2022/08/30 01:57:05;;;;;;;1.97;1.00;;;;;;;15.88;84.47;101049.31;5021459;28;20229;-81
2022/08/30 01:59:33;;;;;;;1.20;1.10;;;;;;;15.89;84.66;101039.63;5021137;28;20214;-82
2022/08/30 02:02:00;;;;;;;1.53;1.10;;;;;;;15.91;84.75;101036.94;5021236;28;20213;-80
2022/08/30 02:04:26;;;;;;;1.30;1.20;;;;;;;15.89;84.48;101048.38;5021198;28;20220;-79
2022/08/30 02:06:53;;;;;;;1.00;1.00;;;;;;;15.87;84.00;101065.13;5021053;28;20607;-80
2022/08/30 02:09:20;;;;;;;1.20;1.10;;;;;;;15.86;84.17;101064.28;5020829;28;20254;-79
2022/08/30 02:11:47;;;;;;;1.67;1.50;;;;;;;15.80;84.93;101042.56;5020718;28;20206;-78
2022/08/30 02:14:14;;;;;;;1.23;1.10;;;;;;;15.80;84.70;101058.34;5020959;28;20258;-81
2022/08/30 02:16:42;;;;;;;1.30;0.90;;;;;;;15.85;84.13;101072.22;5020709;28;20240;-79
2022/08/30 02:19:10;;;;;;;0.97;0.80;;;;;;;15.84;83.98;101071.38;5020427;28;20584;-78
2022/08/30 02:21:36;;;;;;;1.27;1.00;;;;;;;15.78;84.39;101068.94;5020965;28;20232;-79
2022/08/30 02:24:03;;;;;;;1.33;1.23;;;;;;;15.76;84.03;101069.88;5020862;28;20213;-80
2022/08/30 02:26:32;;;;;;;1.60;1.23;;;;;;;15.72;83.97;101076.09;5020524;28;20628;-80
2022/08/30 02:28:59;;;;;;;2.20;1.30;;;;;;;15.68;83.89;101077.97;5020383;28;20231;-80
2022/08/30 02:31:26;;;;;;;1.70;1.60;;;;;;;15.60;84.78;101061.53;5020707;28;20676;-79
2022/08/30 02:33:54;;;;;;;3.63;1.77;;;;;;;15.55;85.05;101048.50;5020925;28;20206;-81
2022/08/30 02:36:21;;;;;;;1.70;1.60;;;;;;;15.51;85.00;101038.13;5020358;28;20236;-79
2022/08/30 02:38:48;;;;;;;1.80;1.70;;;;;;;15.52;84.88;101040.72;5020525;28;20208;-80
2022/08/30 02:41:15;;;;;;;2.07;1.97;;;;;;;15.52;85.34;101032.84;5020169;28;20665;-79
2022/08/30 02:43:41;;;;;;;2.07;1.97;;;;;;;15.54;84.85;101040.66;5020195;28;20221;-79
2022/08/30 02:46:08;;;;;;;2.13;1.97;;;;;;;15.50;85.17;101039.91;5020795;28;20606;-81
2022/08/30 02:48:35;;;;;;;2.73;2.37;;;;;;;15.52;84.84;101048.63;5019610;28;20229;-79
2022/08/30 02:51:07;;;;;;;2.17;2.07;;;;;;;15.50;85.22;101045.19;5020384;28;20208;-79
2022/08/30 02:53:33;;;;;;;2.30;2.20;;;;;;;15.44;85.16;101047.97;5020243;28;20224;-79
2022/08/30 02:56:00;;;;;;;2.20;2.10;;;;;;;15.40;85.75;101025.28;5019347;28;20230;-79
2022/08/30 02:58:26;;;;;;;2.50;2.30;;;;;;;15.41;86.20;101016.50;5019628;28;20695;-80
2022/08/30 03:00:53;;;;;;;4.10;2.60;;;;;;;15.39;86.76;101006.00;5020084;28;20220;-81
2022/08/30 03:03:20;;;;;;;2.30;2.20;;;;;;;15.47;87.09;101000.53;5019846;28;20213;-80
2022/08/30 03:05:47;;;;;;;2.03;1.93;;;;;;;15.52;87.10;100995.13;5019869;28;20308;-79
2022/08/30 03:08:15;;;;;;;2.67;2.57;;;;;;;15.55;87.55;100985.38;5019539;28;20230;-79
2022/08/30 03:10:43;;;;;;;2.50;2.40;;;;;;;15.62;87.54;100986.06;5019325;28;20208;-81
2022/08/30 03:13:10;;;;;;;3.10;2.90;;;;;;;15.61;88.34;100964.13;5018984;28;20218;-80
2022/08/30 03:15:39;;;;;;;2.77;2.67;;;;;;;15.66;88.29;100966.63;5018741;28;20232;-78
2022/08/30 03:18:06;;;;;;;3.10;2.90;;;;;;;15.65;88.70;100965.75;5019599;28;20601;-79
2022/08/30 03:20:34;;;;;;;3.40;3.20;;;;;;;15.67;88.40;100957.81;5019350;28;20224;-81
2022/08/30 03:23:01;;;;;;;3.87;3.60;;;;;;;15.77;88.37;100959.25;5019439;28;20209;-81
2022/08/30 03:25:29;;;;;;;4.03;3.83;;;;;;;15.81;88.42;100970.56;5019505;28;20232;-80
2022/08/30 03:27:56;;;;;;;3.80;3.50;;;;;;;15.77;88.59;100972.41;5018814;28;20205;-80
2022/08/30 03:30:22;;;;;;;3.90;3.70;;;;;;;15.73;88.50;100970.81;5019340;28;20669;-81
2022/08/30 03:32:49;;;;;;;4.20;3.93;;;;;;;15.77;87.91;100990.00;5019048;28;20213;-80
2022/08/30 03:35:16;;;;;;;3.60;3.40;;;;;;;15.82;87.34;101014.41;5019120;28;20232;-81
2022/08/30 03:37:43;;;;;;;4.00;3.80;;;;;;;15.91;87.12;101024.63;5018907;28;20582;-78
2022/08/30 03:40:15;;;;;;;4.27;3.97;;;;;;;15.93;86.85;101035.97;5019499;28;20213;-82
2022/08/30 03:42:43;;;;;;;4.13;3.93;;;;;;;15.91;86.74;101043.06;5018879;28;20309;-81
2022/08/30 03:45:11;;;;;;;3.57;3.20;;;;;;;15.89;86.80;101037.84;5018474;28;20811;-79
2022/08/30 03:47:37;;;;;;;4.03;3.83;;;;;;;15.88;86.35;101054.56;5053820;22;20251;-78
2022/08/30 03:50:05;;;;;;;3.50;3.30;;;;;;;15.82;86.89;101046.84;5034257;28;20237;-77
2022/08/30 03:52:31;;;;;;;4.03;3.73;;;;;;;15.87;86.74;101049.34;5034015;28;20218;-78
2022/08/30 03:54:59;;;;;;;4.53;4.23;;;;;;;15.82;86.81;101049.50;5033803;28;20215;-78
2022/08/30 03:57:26;;;;;;;4.37;3.97;;;;;;;15.80;86.32;101061.84;5030448;28;20258;-78
2022/08/30 03:59:54;;;;;;;4.43;4.17;;;;;;;15.79;86.35;101057.47;5033973;28;20208;-78
2022/08/30 04:02:20;;;;;;;4.57;4.33;;;;;;;15.75;86.90;101053.22;5033739;28;20220;-78
2022/08/30 04:04:47;;;;;;;4.17;3.90;;;;;;;15.75;87.14;101028.66;5033631;28;20212;-77
2022/08/30 04:07:14;;;;;;;4.40;4.10;;;;;;;15.77;86.83;101040.00;5032763;28;20271;-78
2022/08/30 04:09:42;;;;;;;4.33;4.03;;;;;;;15.76;87.17;101046.19;5033296;28;20583;-78
2022/08/30 04:12:09;;;;;;;5.10;4.70;;;;;;;15.72;86.74;101047.13;5033441;28;20211;-78
2022/08/30 04:14:35;;;;;;;5.87;4.90;;;;;;;15.66;87.22;101035.91;5033551;28;20203;-78
2022/08/30 04:17:03;;;;;;;7.23;6.63;;;;;;;15.66;88.01;101019.25;5033006;28;20232;-78
2022/08/30 04:19:30;;;;;;;8.07;7.27;;;;;;;15.67;87.70;101024.47;5032865;28;20208;-78
2022/08/30 04:21:57;;;;;;;8.20;7.50;;;;;;;15.72;87.83;101024.34;5033398;28;20214;-77
2022/08/30 04:24:24;;;;;;;10.70;9.73;;;;;;;15.71;88.31;101024.38;5033350;28;20270;-78
2022/08/30 04:26:50;;;;;;;11.23;10.33;;;;;;;15.66;88.65;101016.63;5032952;28;20227;-78
2022/08/30 04:29:17;;;;;;;10.47;9.57;;;;;;;15.64;88.75;101008.78;5032906;28;20232;-78
2022/08/30 04:31:44;;;;;;;10.23;9.33;;;;;;;15.66;88.27;101025.38;5033028;28;20211;-78
2022/08/30 04:34:12;;;;;;;10.27;9.47;;;;;;;15.69;88.23;101027.91;5034510;28;20209;-79
2022/08/30 04:36:39;;;;;;;10.87;9.83;;;;;;;15.64;88.14;101035.09;5033037;28;20236;-79
2022/08/30 04:39:06;;;;;;;10.33;9.60;;;;;;;15.65;88.64;101028.06;5035667;28;20689;-80
2022/08/30 04:41:33;;;;;;;10.80;10.00;;;;;;;15.61;89.10;101021.16;5035641;28;20678;-79
2022/08/30 04:44:02;;;;;;;11.67;10.83;;;;;;;15.60;88.74;101037.84;5033695;28;20198;-79
2022/08/30 04:46:29;;;;;;;12.07;11.07;;;;;;;15.61;88.83;101032.53;5035431;28;20363;-78
2022/08/30 04:48:55;;;;;;;11.40;10.40;;;;;;;15.64;88.81;101028.97;5036247;28;20640;-79
2022/08/30 04:51:23;;;;;;;11.57;10.67;;;;;;;15.59;89.64;101015.09;5035982;28;20203;-79
2022/08/30 04:53:50;;;;;;;11.37;10.47;;;;;;;15.60;89.77;101012.41;5037220;28;20202;-78
2022/08/30 04:56:21;;;;;;;11.30;10.40;;;;;;;15.65;89.26;101033.31;5035646;28;20686;-79
2022/08/30 04:58:49;;;;;;;10.87;10.07;;;;;;;15.66;89.17;101045.59;5037355;28;20211;-79
2022/08/30 05:01:17;;;;;;;10.93;10.13;;;;;;;15.66;88.74;101051.69;5033163;28;20242;-78
2022/08/30 05:03:44;;;;;;;11.23;10.33;;;;;;;15.59;88.76;101058.03;5035057;28;20304;-78
2022/08/30 05:06:11;;;;;;;11.63;10.77;;;;;;;15.59;89.35;101050.16;5035614;28;20229;-79
2022/08/30 05:08:39;;;;;;;12.70;11.63;;;;;;;15.60;89.68;101040.47;5034144;28;20230;-80
2022/08/30 05:11:08;;;;;;;11.27;10.37;;;;;;;15.66;89.86;101040.31;5032970;28;20211;-79
2022/08/30 05:13:35;;;;;;;11.53;10.53;;;;;;;15.67;90.24;101027.09;5034708;28;20201;-79
2022/08/30 05:16:03;;;;;;;10.97;10.07;;;;;;;15.69;90.01;101041.06;5032539;28;20204;-79
2022/08/30 05:18:29;;;;;;;11.00;10.10;;;;;;;15.63;89.74;101038.63;5035164;28;20203;-79
2022/08/30 05:21:04;;;;;;;11.43;10.43;;;;;;;15.63;90.04;101051.78;5035065;28;20199;-78
2022/08/30 05:23:31;;;;;;;10.57;9.77;;;;;;;15.65;90.44;101043.84;5035648;28;20206;-78
2022/08/30 05:25:59;;;;;;;10.47;9.57;;;;;;;15.64;90.46;101048.25;5035555;28;20325;-79
2022/08/30 05:28:25;;;;;;;10.80;9.87;;;;;;;15.64;90.66;101050.88;5035127;28;20284;-80
2022/08/30 05:30:52;;;;;;;11.53;10.63;;;;;;;15.63;90.74;101043.03;5035470;28;20237;-78
2022/08/30 05:33:18;;;;;;;10.73;9.83;;;;;;;15.67;91.10;101034.97;5033926;28;20197;-80
2022/08/30 05:35:45;;;;;;;9.73;8.97;;;;;;;15.68;91.01;101038.50;5033581;28;20207;-78
2022/08/30 05:38:11;;;;;;;9.63;8.83;;;;;;;15.61;90.90;101042.22;5033647;28;20319;-78
2022/08/30 05:40:40;;;;;;;9.53;8.70;;;;;;;15.63;90.97;101037.75;5034122;28;20205;-78
2022/08/30 05:43:08;;;;;;;10.13;9.30;;;;;;;15.64;90.86;101034.25;5035319;28;20212;-78
2022/08/30 05:45:35;;;;;;;8.27;7.57;;;;;;;15.65;91.29;101044.69;5034620;28;20203;-77
2022/08/30 05:48:01;;;;;;;8.40;7.70;;;;;;;15.67;90.96;101044.66;5031235;28;20229;-79
2022/08/30 05:50:28;;;;;;;7.93;7.33;;;;;;;15.69;90.83;101048.97;5034535;28;20233;-78
2022/08/30 05:52:54;;;;;;;9.50;8.70;;;;;;;15.73;91.24;101039.25;5035276;28;20592;-79
2022/08/30 05:55:22;;;;;;;9.27;8.50;;;;;;;15.71;91.22;101050.69;5034782;28;20644;-77
2022/08/30 05:57:48;;;;;;;9.37;8.67;;;;;;;15.70;91.10;101047.22;5034008;28;20229;-78
2022/08/30 06:00:17;;;;;;;9.00;8.30;;;;;;;15.75;91.17;101042.69;5033488;28;20205;-78
2022/08/30 06:02:44;;;;;;;8.97;8.07;;;;;;;15.73;91.09;101054.16;5030828;28;20691;-79
2022/08/30 06:05:12;;;;;;;9.90;9.10;;;;;;;15.78;91.17;101052.28;5033139;28;20304;-78
2022/08/30 06:07:39;;;;;;;9.00;8.30;;;;;;;15.79;91.33;101052.22;5033795;28;20233;-78
2022/08/30 06:10:06;;;;;;;9.03;8.23;;;;;;;15.81;91.48;101046.91;5033113;28;20229;-78
2022/08/30 06:12:33;;;;;;;8.37;7.60;;;;;;;15.85;92.10;101040.63;5034532;28;20203;-79
2022/08/30 06:14:59;;;;;;;8.10;7.40;;;;;;;15.86;92.26;101029.19;5033453;28;20230;-79
2022/08/30 06:17:27;;;;;;;7.47;6.87;;;;;;;15.92;91.87;101041.31;5034749;28;20282;-78
2022/08/30 06:19:53;;;;;;;8.10;7.40;;;;;;;15.91;91.26;101058.00;5033785;28;20205;-78
2022/08/30 06:22:19;;;;;;;8.67;7.87;;;;;;;15.88;91.21;101062.47;5037780;28;20245;-78
2022/08/30 06:24:46;;;;;;;8.60;7.80;;;;;;;15.92;91.40;101062.38;5037775;28;20204;-79
2022/08/30 06:27:12;;;;;;;8.87;8.07;;;;;;;15.95;91.67;101055.22;5038164;28;20218;-79
2022/08/30 06:29:39;;;;;;;9.90;9.00;;;;;;;15.97;91.78;101056.03;5037899;28;20269;-79
2022/08/30 06:32:05;;;;;;;9.03;8.23;;;;;;;16.03;91.82;101069.00;5036823;28;20538;-78
2022/08/30 06:34:33;;;;;;;9.43;8.57;;;;;;;16.04;91.81;101062.00;5037009;28;20204;-78
2022/08/30 06:37:00;;;;;;;9.53;8.73;;;;;;;16.09;92.23;101067.94;5034824;28;20717;-79
2022/08/30 06:39:26;;;;;;;10.13;9.23;;;;;;;16.15;92.36;101059.00;5033669;28;20666;-77
2022/08/30 06:41:53;;;;;;;9.77;8.87;;;;;;;16.20;91.78;101067.63;5035518;28;20211;-78
2022/08/30 06:44:19;;;;;;;9.40;8.57;;;;;;;16.11;91.19;101081.94;5035471;28;20207;-77
2022/08/30 06:46:46;;;;;;;10.93;9.93;;;;;;;16.15;91.33;101085.34;5035768;28;20306;-79
2022/08/30 06:49:13;;;;;;;10.77;9.87;;;;;;;16.12;91.73;101082.81;5036907;28;20232;-79
2022/08/30 06:51:41;;;;;;;10.00;9.20;;;;;;;16.11;91.90;101081.94;5035349;28;20605;-78
2022/08/30 06:54:09;;;;;;;10.60;9.70;;;;;;;16.05;91.76;101083.03;5035964;28;20218;-78
2022/08/30 06:56:36;;;;;;;10.33;9.53;;;;;;;16.06;91.77;101086.50;5034915;28;20642;-77
2022/08/30 06:59:03;;;;;;;10.23;9.43;;;;;;;16.05;91.64;101087.41;5035191;28;20213;-78
2022/08/30 07:01:30;;;;;;;10.63;9.33;;;;;;;16.03;92.09;101086.59;5034743;28;20293;-77
2022/08/30 07:03:57;;;;;;;9.77;8.97;;;;;;;16.00;91.86;101084.06;5035941;28;20204;-78
2022/08/30 07:06:42;;;;;;;10.60;9.70;;;;;;;16.02;92.14;101083.09;5035546;28;20252;-78
2022/08/30 07:09:09;;;;;;;10.03;9.23;;;;;;;16.04;92.47;101077.78;5034520;28;20233;-78
2022/08/30 07:11:37;;;;;;;10.27;9.37;;;;;;;16.02;92.56;101072.56;5035450;28;20196;-78
2022/08/30 07:14:07;;;;;;;9.40;8.60;;;;;;;16.03;92.78;101071.63;5035359;28;20562;-78
2022/08/30 07:19:09;;;;;;;9.63;8.73;;;;;;;16.11;93.10;101071.41;4832830;22;20573;-79
2022/08/30 07:21:38;;;;;;;8.83;8.10;;;;;;;16.11;92.93;101076.66;4960000;28;20206;-79
2022/08/30 07:24:06;;;;;;;9.67;8.87;;;;;;;16.14;92.65;101078.38;4959903;28;20199;-79
2022/08/30 07:26:37;;;;;;;10.23;9.23;;;;;;;16.19;92.76;101086.97;4968278;28;20218;-78
2022/08/30 07:29:04;;;;;;;8.97;8.17;;;;;;;16.22;92.88;101086.88;4953912;28;20201;-78
2022/08/30 07:31:31;;;;;;;10.03;9.13;;;;;;;16.22;92.51;101095.63;4948199;28;20762;-78
2022/08/30 07:33:58;;;;;;;10.63;9.70;;;;;;;16.23;92.51;101104.41;4945974;29;20202;-78
2022/08/30 07:39:17;;;;;;;10.37;9.53;;;;;;;16.33;92.83;101097.91;4957065;29;20218;-79
2022/08/30 07:46:02;;;;;;;9.77;8.87;;;;;;;16.44;92.21;101100.22;4918078;29;20216;-79
2022/08/30 07:51:42;;;;;;;9.83;9.00;;;;;;;16.54;92.70;101106.06;4824182;29;20238;-79
2022/08/30 07:54:08;;;;;;;9.03;8.20;;;;;;;16.62;92.11;101110.16;4928980;29;20606;-79
2022/08/30 07:56:34;;;;;;;8.80;8.10;;;;;;;16.71;91.60;101121.28;4939214;29;20253;-78
2022/08/30 07:59:01;;;;;;;8.73;7.93;;;;;;;16.78;91.12;101143.91;4939936;29;20196;-79
2022/08/30 08:01:29;;;;;;;9.07;8.27;;;;;;;16.82;90.68;101158.75;4939996;29;20234;-79
2022/08/30 08:03:55;;;;;;;9.27;8.37;;;;;;;16.95;90.85;101161.84;4939822;29;20197;-78
2022/08/30 08:06:22;;;;;;;8.70;7.80;;;;;;;16.97;90.50;101173.22;4930424;29;20231;-79
2022/08/30 08:08:50;;;;;;;9.63;8.77;;;;;;;17.00;89.82;101179.22;4930756;29;20212;-79
2022/08/30 08:11:19;;;;;;;8.73;8.03;;;;;;;17.05;89.51;101197.53;4940465;29;20235;-79
2022/08/30 08:13:47;;;;;;;10.37;9.40;;;;;;;17.09;89.45;101212.34;4930578;29;20210;-79
2022/08/30 08:16:14;;;;;;;9.73;8.83;;;;;;;17.12;89.47;101206.97;4931069;29;20248;-79
2022/08/30 08:18:41;;;;;;;9.20;8.33;;;;;;;17.17;89.69;101201.53;4930169;29;20661;-79
2022/08/30 08:21:10;;;;;;;9.37;8.47;;;;;;;17.19;89.55;101203.22;4928541;29;20278;-79
2022/08/30 08:23:37;;;;;;;8.80;8.00;;;;;;;17.23;89.53;101203.97;4935969;29;20334;-79
2022/08/30 08:26:04;;;;;;;9.80;8.90;;;;;;;17.26;89.54;101204.72;4937261;29;20707;-79
2022/08/30 08:28:30;;;;;;;10.50;9.50;;;;;;;17.36;89.49;101205.28;4937311;29;20211;-79
2022/08/30 08:30:57;;;;;;;11.83;9.33;;;;;;;17.44;88.94;101210.25;4938616;29;20221;-79
2022/08/30 08:33:23;;;;;;;9.30;8.53;;;;;;;17.49;88.65;101218.88;4938955;29;20825;-78
2022/08/30 08:35:51;;;;;;;9.47;8.67;;;;;;;17.53;88.02;101246.91;4938428;29;20203;-79
2022/08/30 08:38:17;;;;;;;9.97;9.07;;;;;;;17.53;87.64;101261.88;4936004;29;20284;-78
2022/08/30 08:40:55;;;;;;;9.83;8.83;;;;;;;17.52;87.93;101255.75;4938795;29;20270;-78
2022/08/30 08:43:26;;;;;;;10.00;9.10;;;;;;;17.58;88.01;101249.38;4936940;29;20247;-79
2022/08/30 08:46:00;;;;;;;9.20;8.33;;;;;;;17.55;87.96;101249.50;4938412;29;20256;-78
2022/08/30 08:48:31;;;;;;;10.90;9.80;;;;;;;17.52;88.65;101231.09;4938773;29;20208;-79
2022/08/30 08:53:50;;;;;;;10.20;9.23;;;;;;;17.61;87.68;101241.34;4938007;29;20298;-79
2022/08/30 08:56:43;;;;;;;10.00;9.10;;;;;;;17.60;87.54;101260.75;4963948;23;20281;-79
2022/08/30 09:02:38;;;;;;;8.80;8.00;;;;;;;17.66;86.58;101268.47;4982895;28;20209;-78
2022/08/30 09:05:06;;;;;;;9.47;8.67;;;;;;;17.64;86.97;101276.44;4995335;28;20194;-79
2022/08/30 09:07:37;;;;;;;8.60;7.90;;;;;;;17.64;87.36;101257.97;4996465;28;20628;-79
2022/08/30 09:10:04;;;;;;;9.70;8.80;;;;;;;17.67;87.42;101247.28;4996281;28;20219;-78
2022/08/30 09:12:30;;;;;;;8.50;7.80;;;;;;;17.75;87.69;101236.44;4997353;28;20602;-79
2022/08/30 09:15:03;;;;;;;8.77;8.07;;;;;;;17.84;87.55;101248.50;4996571;28;20613;-79
2022/08/30 09:17:47;;;;;;;8.90;8.10;;;;;;;17.90;86.81;101261.47;4997051;28;20270;-79
2022/08/30 09:20:24;;;;;;;8.83;8.03;;;;;;;17.98;86.95;101266.50;4996492;28;20193;-80
2022/08/30 09:22:52;;;;;;;7.97;7.27;;;;;;;18.05;87.03;101260.91;4997233;28;20257;-79
2022/08/30 09:25:23;;;;;;;9.03;8.23;;;;;;;18.13;85.25;101302.88;4993820;28;20566;-80
2022/08/30 09:27:51;;;;;;;8.07;7.37;;;;;;;18.14;84.71;101324.91;4995801;28;20704;-79
2022/08/30 09:30:21;;;;;;;9.13;8.33;;;;;;;18.13;84.76;101331.97;4994314;28;20239;-79
2022/08/30 09:32:52;;;;;;;8.67;7.77;;;;;;;18.16;84.78;101336.28;4997479;28;20206;-79
2022/08/30 09:35:21;;;;;;;7.90;7.30;;;;;;;18.21;84.62;101334.31;4994247;28;20235;-80
2022/08/30 09:37:55;;;;;;;7.63;7.10;;;;;;;18.25;83.90;101349.16;4997088;28;20764;-80
2022/08/30 09:40:27;;;;;;;7.20;6.60;;;;;;;18.26;83.44;101361.47;4994730;28;20202;-80
2022/08/30 09:43:03;;;;;;;7.47;6.87;;;;;;;18.33;82.95;101385.88;4997186;28;20253;-80
2022/08/30 09:45:55;;;;;;;7.67;6.87;;;;;;;18.36;82.59;101396.34;4996862;28;20226;-80
2022/08/30 09:48:28;;;;;;;8.50;7.80;;;;;;;18.41;82.21;101416.44;4996654;28;20273;-79
2022/08/30 09:51:04;;;;;;;7.83;7.23;;;;;;;18.44;82.54;101389.88;5016679;23;20251;-80
2022/08/30 09:53:35;;;;;;;7.03;6.47;;;;;;;18.51;81.52;101406.34;5002305;28;20588;-80
2022/08/30 09:56:07;;;;;;;7.43;6.90;;;;;;;18.56;81.86;101395.63;4998962;28;20618;-80
2022/08/30 09:58:50;;;;;;;7.10;6.50;;;;;;;18.64;80.90;101420.84;5002071;28;20203;-80
2022/08/30 10:01:24;;;;;;;5.53;5.13;;;;;;;18.70;80.28;101437.44;5001646;28;20213;-80
2022/08/30 10:04:01;;;;;;;5.73;5.23;;;;;;;18.74;79.06;101481.38;5002080;28;20281;-80
2022/08/30 10:06:33;;;;;;;5.00;4.60;;;;;;;18.78;78.57;101497.06;5000017;28;20210;-81
2022/08/30 10:09:16;;;;;;;4.93;4.63;;;;;;;18.84;77.98;101512.75;5001244;28;20226;-80
2022/08/30 10:11:52;;;;;;;4.17;3.83;;;;;;;18.91;78.29;101502.81;5001880;28;20231;-80
2022/08/30 10:14:36;;;;;;;4.63;4.33;;;;;;;18.99;77.66;101518.41;5001968;28;20238;-80
2022/08/30 10:17:10;;;;;;;4.67;4.37;;;;;;;19.03;76.74;101539.41;5002068;28;20277;-81
2022/08/30 10:19:50;;;;;;;4.40;4.10;;;;;;;19.09;76.78;101546.25;5002393;28;20230;-80
2022/08/30 10:22:23;;;;;;;4.40;4.10;;;;;;;19.19;75.82;101576.75;5001904;28;20212;-81
2022/08/30 10:24:59;;;;;;;4.07;3.70;;;;;;;19.20;75.23;101593.50;5001603;28;20338;-81
2022/08/30 10:27:29;;;;;;;3.83;3.57;;;;;;;19.20;75.73;101590.84;5002189;28;20215;-80
2022/08/30 10:30:01;;;;;;;3.40;3.20;;;;;;;19.25;76.28;101560.66;5000862;28;20211;-81
2022/08/30 10:32:34;;;;;;;2.90;2.70;;;;;;;19.32;75.05;101582.44;5002494;28;20211;-80
2022/08/30 10:35:06;;;;;;;5.37;5.07;;;;;;;19.41;74.63;101594.50;5001250;28;20240;-80
2022/08/30 10:37:38;;;;;;;5.70;5.30;;;;;;;19.50;74.84;101601.22;5002799;28;20207;-80
2022/08/30 10:42:56;;;;;;;6.37;5.97;;;;;;;19.39;75.06;101575.16;5009679;28;20199;-80
2022/08/30 10:45:25;;;;;;;7.13;6.63;;;;;;;19.35;75.01;101574.41;5020329;28;20264;-80
2022/08/30 10:48:00;;;;;;;9.00;8.40;;;;;;;19.31;75.43;101548.13;5024203;28;20215;-78
2022/08/30 10:50:32;;;;;;;6.70;6.23;;;;;;;19.31;75.00;101559.56;5033491;28;20232;-79
2022/08/30 10:53:06;;;;;;;5.03;4.73;;;;;;;19.39;75.13;101554.84;5021837;28;20213;-80
2022/08/30 10:55:43;;;;;;;5.33;4.93;;;;;;;19.47;75.19;101537.81;5020174;28;20214;-80
2022/08/30 10:58:11;;;;;;;5.80;5.50;;;;;;;19.55;74.22;101578.94;5021689;28;20237;-80
2022/08/30 11:00:51;;;;;;;6.73;6.33;;;;;;;19.65;74.58;101576.81;5020386;28;20229;-80
2022/08/30 11:03:55;;;;;;;7.13;6.67;;;;;;;19.74;73.18;101613.59;5020880;28;20276;-80
2022/08/30 11:06:26;;;;;;;7.30;6.70;;;;;;;19.78;72.99;101617.84;5019792;28;20203;-80
2022/08/30 11:09:17;;;;;;;6.17;5.70;;;;;;;19.91;73.61;101582.91;5000563;28;20270;-80
2022/08/30 11:12:12;;;;;;;5.40;4.90;;;;;;;20.17;72.45;101608.38;5001127;28;20238;-79
2022/08/30 11:14:40;;;;;;;4.70;4.40;;;;;;;20.54;72.40;101620.13;5000391;28;20675;-78
2022/08/30 11:17:24;;;;;;;4.80;4.50;;;;;;;20.80;69.88;101682.75;4999948;28;20207;-79
2022/08/30 11:19:53;;;;;;;3.93;3.73;;;;;;;21.08;69.53;101724.91;4992847;28;20272;-79
2022/08/30 11:22:24;;;;;;;4.77;3.80;;;;;;;21.33;67.04;101775.19;5000560;28;20208;-80
2022/08/30 11:25:04;;;;;;;4.10;3.70;;;;;;;21.55;64.42;101876.13;4999764;28;20231;-79
2022/08/30 11:27:57;;;;;;;3.77;3.57;;;;;;;21.63;64.27;101926.31;5000095;28;20402;-80
2022/08/30 11:30:47;;;;;;;3.83;3.53;;;;;;;21.81;62.60;101927.31;4985525;28;20215;-79
2022/08/30 11:33:45;;;;;;;3.57;3.20;;;;;;;22.50;62.27;101950.94;4999301;28;20235;-80
2022/08/30 11:36:41;;;;;;;3.33;3.03;;;;;;;23.85;58.23;102037.03;4939301;29;20216;-81
2022/08/30 11:39:09;;;;;;;3.30;3.10;;;;;;;25.54;53.28;102233.19;4997584;28;20264;-80
2022/08/30 11:41:39;;;;;;;3.37;3.17;;;;;;;26.64;50.30;102344.09;4999579;28;20210;-81
2022/08/30 11:44:27;;;;;;;3.00;2.80;;;;;;;27.72;48.97;102386.09;4999541;28;20228;-82
2022/08/30 11:46:54;;;;;;;2.67;2.57;;;;;;;29.16;44.52;102451.44;4999757;28;20286;-79
2022/08/30 11:49:48;;;;;;;3.10;2.90;;;;;;;29.30;42.54;102526.72;4998531;28;20729;-78
2022/08/30 11:52:27;;;;;;;2.80;2.60;;;;;;;29.38;43.35;102491.22;4998745;28;20216;-79
2022/08/30 11:55:12;;;;;;;2.50;2.40;;;;;;;30.28;40.79;102489.59;4998501;28;20290;-79
2022/08/30 11:57:47;;;;;;;3.43;3.07;;;;;;;31.44;37.82;102548.78;4999532;28;20211;-78